sensor_id;sensor_type;location;lat;lon;timestamp;temperature;humidity
44111;DHT22;29774;52.664;5.074;2023-06-04T00:00:30;12.60;75.90
44111;DHT22;29774;52.664;5.074;2023-06-04T00:02:56;12.60;76.20
44111;DHT22;29774;52.664;5.074;2023-06-04T00:05:21;12.60;76.50
44111;DHT22;29774;52.664;5.074;2023-06-04T00:07:52;12.50;76.40
44111;DHT22;29774;52.664;5.074;2023-06-04T00:10:18;12.50;76.70
44111;DHT22;29774;52.664;5.074;2023-06-04T00:12:44;12.50;76.90
44111;DHT22;29774;52.664;5.074;2023-06-04T00:15:09;12.40;77.20
44111;DHT22;29774;52.664;5.074;2023-06-04T00:17:35;12.40;77.40
44111;DHT22;29774;52.664;5.074;2023-06-04T00:20:01;12.40;77.70
44111;DHT22;29774;52.664;5.074;2023-06-04T00:22:27;12.40;77.80
44111;DHT22;29774;52.664;5.074;2023-06-04T00:24:52;12.40;78.10
44111;DHT22;29774;52.664;5.074;2023-06-04T00:27:18;12.40;78.20
44111;DHT22;29774;52.664;5.074;2023-06-04T00:29:44;12.30;78.40
44111;DHT22;29774;52.664;5.074;2023-06-04T00:32:09;12.30;78.50
44111;DHT22;29774;52.664;5.074;2023-06-04T00:34:35;12.30;78.60
44111;DHT22;29774;52.664;5.074;2023-06-04T00:37:01;12.30;78.80
44111;DHT22;29774;52.664;5.074;2023-06-04T00:39:29;12.30;79.00
44111;DHT22;29774;52.664;5.074;2023-06-04T00:41:55;12.40;78.90
44111;DHT22;29774;52.664;5.074;2023-06-04T00:44:21;12.40;78.90
44111;DHT22;29774;52.664;5.074;2023-06-04T00:46:51;12.40;78.80
44111;DHT22;29774;52.664;5.074;2023-06-04T00:49:19;12.30;78.80
44111;DHT22;29774;52.664;5.074;2023-06-04T00:51:44;12.30;79.00
44111;DHT22;29774;52.664;5.074;2023-06-04T00:54:11;12.30;79.10
44111;DHT22;29774;52.664;5.074;2023-06-04T00:56:38;12.30;79.30
44111;DHT22;29774;52.664;5.074;2023-06-04T00:59:05;12.30;79.70
44111;DHT22;29774;52.664;5.074;2023-06-04T01:01:55;12.20;79.50
44111;DHT22;29774;52.664;5.074;2023-06-04T01:04:34;12.30;79.60
44111;DHT22;29774;52.664;5.074;2023-06-04T01:07:03;12.20;79.90
44111;DHT22;29774;52.664;5.074;2023-06-04T01:09:29;12.20;80.10
44111;DHT22;29774;52.664;5.074;2023-06-04T01:11:56;12.20;80.00
44111;DHT22;29774;52.664;5.074;2023-06-04T01:14:24;12.10;80.20
44111;DHT22;29774;52.664;5.074;2023-06-04T01:25:39;12.10;81.10
44111;DHT22;29774;52.664;5.074;2023-06-04T01:28:07;12.10;80.90
44111;DHT22;29774;52.664;5.074;2023-06-04T01:30:35;12.00;81.20
44111;DHT22;29774;52.664;5.074;2023-06-04T01:33:02;12.00;81.40
44111;DHT22;29774;52.664;5.074;2023-06-04T01:35:29;12.00;81.60
44111;DHT22;29774;52.664;5.074;2023-06-04T01:37:56;12.10;81.70
44111;DHT22;29774;52.664;5.074;2023-06-04T01:40:23;12.10;81.70
44111;DHT22;29774;52.664;5.074;2023-06-04T01:42:48;12.00;81.80
44111;DHT22;29774;52.664;5.074;2023-06-04T01:45:15;12.00;82.00
44111;DHT22;29774;52.664;5.074;2023-06-04T01:47:40;11.90;82.30
44111;DHT22;29774;52.664;5.074;2023-06-04T01:50:06;11.90;82.50
44111;DHT22;29774;52.664;5.074;2023-06-04T01:52:36;11.90;82.60
44111;DHT22;29774;52.664;5.074;2023-06-04T01:55:09;11.80;82.70
44111;DHT22;29774;52.664;5.074;2023-06-04T01:57:37;11.80;83.00
44111;DHT22;29774;52.664;5.074;2023-06-04T02:00:05;11.80;83.10
44111;DHT22;29774;52.664;5.074;2023-06-04T02:02:35;11.80;83.10
44111;DHT22;29774;52.664;5.074;2023-06-04T02:05:07;11.80;83.10
44111;DHT22;29774;52.664;5.074;2023-06-04T02:07:37;11.80;83.50
44111;DHT22;29774;52.664;5.074;2023-06-04T02:10:08;11.80;83.50
44111;DHT22;29774;52.664;5.074;2023-06-04T02:12:37;11.80;83.60
44111;DHT22;29774;52.664;5.074;2023-06-04T02:15:04;11.80;83.60
44111;DHT22;29774;52.664;5.074;2023-06-04T02:17:30;11.80;83.60
44111;DHT22;29774;52.664;5.074;2023-06-04T02:19:58;11.70;83.50
44111;DHT22;29774;52.664;5.074;2023-06-04T02:22:24;11.70;83.80
44111;DHT22;29774;52.664;5.074;2023-06-04T02:24:50;11.70;84.10
44111;DHT22;29774;52.664;5.074;2023-06-04T02:27:16;11.70;84.10
44111;DHT22;29774;52.664;5.074;2023-06-04T02:29:41;11.70;84.20
44111;DHT22;29774;52.664;5.074;2023-06-04T02:32:08;11.70;84.40
44111;DHT22;29774;52.664;5.074;2023-06-04T02:34:34;11.80;84.40
44111;DHT22;29774;52.664;5.074;2023-06-04T02:37:00;11.70;84.40
44111;DHT22;29774;52.664;5.074;2023-06-04T02:39:25;11.70;84.50
44111;DHT22;29774;52.664;5.074;2023-06-04T02:41:51;11.70;84.50
44111;DHT22;29774;52.664;5.074;2023-06-04T02:44:17;11.70;84.60
44111;DHT22;29774;52.664;5.074;2023-06-04T02:46:43;11.80;84.70
44111;DHT22;29774;52.664;5.074;2023-06-04T02:49:10;11.70;84.60
44111;DHT22;29774;52.664;5.074;2023-06-04T02:51:39;11.70;84.70
44111;DHT22;29774;52.664;5.074;2023-06-04T02:54:05;11.70;84.90
44111;DHT22;29774;52.664;5.074;2023-06-04T02:56:30;11.60;84.70
44111;DHT22;29774;52.664;5.074;2023-06-04T02:58:56;11.60;84.90
44111;DHT22;29774;52.664;5.074;2023-06-04T03:01:23;11.60;84.90
44111;DHT22;29774;52.664;5.074;2023-06-04T03:03:49;11.50;84.90
44111;DHT22;29774;52.664;5.074;2023-06-04T03:06:16;11.40;85.00
44111;DHT22;29774;52.664;5.074;2023-06-04T03:08:43;11.50;85.20
44111;DHT22;29774;52.664;5.074;2023-06-04T03:11:09;11.60;85.40
44111;DHT22;29774;52.664;5.074;2023-06-04T03:13:35;11.60;85.30
44111;DHT22;29774;52.664;5.074;2023-06-04T03:16:01;11.60;85.40
44111;DHT22;29774;52.664;5.074;2023-06-04T03:18:27;11.50;85.30
44111;DHT22;29774;52.664;5.074;2023-06-04T03:20:54;11.50;85.60
44111;DHT22;29774;52.664;5.074;2023-06-04T03:23:20;11.50;85.70
44111;DHT22;29774;52.664;5.074;2023-06-04T03:25:46;11.50;85.80
44111;DHT22;29774;52.664;5.074;2023-06-04T03:28:12;11.50;85.80
44111;DHT22;29774;52.664;5.074;2023-06-04T03:30:37;11.50;85.90
44111;DHT22;29774;52.664;5.074;2023-06-04T03:33:03;11.50;85.90
44111;DHT22;29774;52.664;5.074;2023-06-04T03:35:29;11.50;86.20
44111;DHT22;29774;52.664;5.074;2023-06-04T03:37:54;11.50;86.30
44111;DHT22;29774;52.664;5.074;2023-06-04T03:40:20;11.50;86.30
44111;DHT22;29774;52.664;5.074;2023-06-04T03:42:46;11.50;86.30
44111;DHT22;29774;52.664;5.074;2023-06-04T03:45:11;11.50;86.30
44111;DHT22;29774;52.664;5.074;2023-06-04T03:47:38;11.40;86.40
44111;DHT22;29774;52.664;5.074;2023-06-04T03:50:05;11.50;86.30
44111;DHT22;29774;52.664;5.074;2023-06-04T03:52:31;11.40;86.40
44111;DHT22;29774;52.664;5.074;2023-06-04T03:54:56;11.50;86.50
44111;DHT22;29774;52.664;5.074;2023-06-04T03:57:22;11.40;86.70
44111;DHT22;29774;52.664;5.074;2023-06-04T03:59:48;11.40;86.70
44111;DHT22;29774;52.664;5.074;2023-06-04T04:02:14;11.50;86.70
44111;DHT22;29774;52.664;5.074;2023-06-04T04:04:40;11.50;86.80
44111;DHT22;29774;52.664;5.074;2023-06-04T04:07:05;11.50;86.80
44111;DHT22;29774;52.664;5.074;2023-06-04T04:09:31;11.50;86.90
44111;DHT22;29774;52.664;5.074;2023-06-04T04:11:57;11.50;86.90
44111;DHT22;29774;52.664;5.074;2023-06-04T04:14:22;11.50;87.10
44111;DHT22;29774;52.664;5.074;2023-06-04T04:16:48;11.50;87.20
44111;DHT22;29774;52.664;5.074;2023-06-04T04:19:13;11.60;87.30
44111;DHT22;29774;52.664;5.074;2023-06-04T04:21:39;11.60;87.40
44111;DHT22;29774;52.664;5.074;2023-06-04T04:24:05;11.70;87.50
44111;DHT22;29774;52.664;5.074;2023-06-04T04:26:31;11.70;87.50
44111;DHT22;29774;52.664;5.074;2023-06-04T04:28:56;11.70;87.60
44111;DHT22;29774;52.664;5.074;2023-06-04T04:31:23;11.80;87.60
44111;DHT22;29774;52.664;5.074;2023-06-04T04:33:49;11.80;87.60
44111;DHT22;29774;52.664;5.074;2023-06-04T04:36:16;11.80;87.60
44111;DHT22;29774;52.664;5.074;2023-06-04T04:38:43;11.90;87.80
44111;DHT22;29774;52.664;5.074;2023-06-04T04:41:10;11.90;87.90
44111;DHT22;29774;52.664;5.074;2023-06-04T04:43:37;11.90;87.90
44111;DHT22;29774;52.664;5.074;2023-06-04T04:46:05;12.00;88.00
44111;DHT22;29774;52.664;5.074;2023-06-04T04:48:31;12.00;88.10
44111;DHT22;29774;52.664;5.074;2023-06-04T04:50:57;12.10;88.10
44111;DHT22;29774;52.664;5.074;2023-06-04T04:53:23;12.10;88.20
44111;DHT22;29774;52.664;5.074;2023-06-04T04:55:49;12.20;88.20
44111;DHT22;29774;52.664;5.074;2023-06-04T04:58:15;12.20;88.20
44111;DHT22;29774;52.664;5.074;2023-06-04T05:00:41;12.30;88.20
44111;DHT22;29774;52.664;5.074;2023-06-04T05:03:07;12.30;88.20
44111;DHT22;29774;52.664;5.074;2023-06-04T05:05:33;12.40;88.10
44111;DHT22;29774;52.664;5.074;2023-06-04T05:07:58;12.50;88.00
44111;DHT22;29774;52.664;5.074;2023-06-04T05:10:24;12.60;87.90
44111;DHT22;29774;52.664;5.074;2023-06-04T05:12:51;12.60;87.90
44111;DHT22;29774;52.664;5.074;2023-06-04T05:15:17;12.70;88.00
44111;DHT22;29774;52.664;5.074;2023-06-04T05:17:43;12.80;88.10
44111;DHT22;29774;52.664;5.074;2023-06-04T05:20:09;13.00;88.20
44111;DHT22;29774;52.664;5.074;2023-06-04T05:22:37;13.10;88.00
44111;DHT22;29774;52.664;5.074;2023-06-04T05:25:03;13.20;87.80
44111;DHT22;29774;52.664;5.074;2023-06-04T05:27:29;13.30;87.30
44111;DHT22;29774;52.664;5.074;2023-06-04T05:29:57;13.50;87.10
44111;DHT22;29774;52.664;5.074;2023-06-04T05:32:22;13.70;86.40
44111;DHT22;29774;52.664;5.074;2023-06-04T05:34:48;13.80;85.10
44111;DHT22;29774;52.664;5.074;2023-06-04T05:37:14;14.00;84.40
44111;DHT22;29774;52.664;5.074;2023-06-04T05:39:42;14.20;84.10
44111;DHT22;29774;52.664;5.074;2023-06-04T05:42:08;14.20;83.20
44111;DHT22;29774;52.664;5.074;2023-06-04T05:44:33;14.30;82.80
44111;DHT22;29774;52.664;5.074;2023-06-04T05:46:59;14.40;82.60
44111;DHT22;29774;52.664;5.074;2023-06-04T05:49:24;14.60;82.30
44111;DHT22;29774;52.664;5.074;2023-06-04T05:51:51;14.70;81.80
44111;DHT22;29774;52.664;5.074;2023-06-04T05:54:17;14.90;81.20
44111;DHT22;29774;52.664;5.074;2023-06-04T05:56:42;15.00;80.70
44111;DHT22;29774;52.664;5.074;2023-06-04T05:59:08;15.10;80.10
44111;DHT22;29774;52.664;5.074;2023-06-04T06:01:33;15.20;79.50
44111;DHT22;29774;52.664;5.074;2023-06-04T06:04:00;15.20;79.00
44111;DHT22;29774;52.664;5.074;2023-06-04T06:06:25;15.40;78.80
44111;DHT22;29774;52.664;5.074;2023-06-04T06:08:51;15.60;78.10
44111;DHT22;29774;52.664;5.074;2023-06-04T06:11:18;15.70;77.20
44111;DHT22;29774;52.664;5.074;2023-06-04T06:13:43;15.80;77.30
44111;DHT22;29774;52.664;5.074;2023-06-04T06:16:09;15.90;75.60
44111;DHT22;29774;52.664;5.074;2023-06-04T06:18:34;16.00;74.20
44111;DHT22;29774;52.664;5.074;2023-06-04T06:21:00;16.20;74.30
44111;DHT22;29774;52.664;5.074;2023-06-04T06:23:26;16.30;73.30
44111;DHT22;29774;52.664;5.074;2023-06-04T06:25:51;16.40;71.10
44111;DHT22;29774;52.664;5.074;2023-06-04T06:28:18;16.40;70.30
44111;DHT22;29774;52.664;5.074;2023-06-04T06:30:44;16.40;70.40
44111;DHT22;29774;52.664;5.074;2023-06-04T06:33:10;16.50;69.60
44111;DHT22;29774;52.664;5.074;2023-06-04T06:35:35;16.60;70.10
44111;DHT22;29774;52.664;5.074;2023-06-04T06:38:01;16.80;69.20
44111;DHT22;29774;52.664;5.074;2023-06-04T06:40:27;16.90;67.40
44111;DHT22;29774;52.664;5.074;2023-06-04T06:42:52;17.10;67.90
44111;DHT22;29774;52.664;5.074;2023-06-04T06:45:18;17.30;67.40
44111;DHT22;29774;52.664;5.074;2023-06-04T06:47:45;17.40;67.90
44111;DHT22;29774;52.664;5.074;2023-06-04T06:50:10;17.50;67.40
44111;DHT22;29774;52.664;5.074;2023-06-04T06:52:37;17.60;66.60
44111;DHT22;29774;52.664;5.074;2023-06-04T06:55:04;17.60;65.90
44111;DHT22;29774;52.664;5.074;2023-06-04T06:57:29;17.70;66.10
44111;DHT22;29774;52.664;5.074;2023-06-04T06:59:55;17.80;64.90
44111;DHT22;29774;52.664;5.074;2023-06-04T07:02:21;17.90;64.70
44111;DHT22;29774;52.664;5.074;2023-06-04T07:04:47;18.00;63.00
44111;DHT22;29774;52.664;5.074;2023-06-04T07:07:12;18.00;63.10
44111;DHT22;29774;52.664;5.074;2023-06-04T07:09:38;18.00;63.90
44111;DHT22;29774;52.664;5.074;2023-06-04T07:12:04;18.10;63.50
44111;DHT22;29774;52.664;5.074;2023-06-04T07:14:30;18.20;63.10
44111;DHT22;29774;52.664;5.074;2023-06-04T07:16:55;18.30;61.10
44111;DHT22;29774;52.664;5.074;2023-06-04T07:19:21;18.30;60.30
44111;DHT22;29774;52.664;5.074;2023-06-04T07:21:46;18.40;61.50
44111;DHT22;29774;52.664;5.074;2023-06-04T07:24:12;18.40;61.40
44111;DHT22;29774;52.664;5.074;2023-06-04T07:26:37;18.50;60.40
44111;DHT22;29774;52.664;5.074;2023-06-04T07:29:03;18.50;60.10
44111;DHT22;29774;52.664;5.074;2023-06-04T07:31:29;18.60;59.90
44111;DHT22;29774;52.664;5.074;2023-06-04T07:33:54;18.60;60.90
44111;DHT22;29774;52.664;5.074;2023-06-04T07:36:20;18.70;61.30
44111;DHT22;29774;52.664;5.074;2023-06-04T07:38:46;18.90;59.30
44111;DHT22;29774;52.664;5.074;2023-06-04T07:41:12;19.00;59.70
44111;DHT22;29774;52.664;5.074;2023-06-04T07:43:37;19.10;60.30
44111;DHT22;29774;52.664;5.074;2023-06-04T07:46:03;19.10;60.30
44111;DHT22;29774;52.664;5.074;2023-06-04T07:48:29;19.10;60.70
44111;DHT22;29774;52.664;5.074;2023-06-04T07:50:58;19.20;61.90
44111;DHT22;29774;52.664;5.074;2023-06-04T07:53:24;19.50;59.20
44111;DHT22;29774;52.664;5.074;2023-06-04T07:55:51;19.60;59.10
44111;DHT22;29774;52.664;5.074;2023-06-04T07:58:17;19.80;59.00
44111;DHT22;29774;52.664;5.074;2023-06-04T08:00:42;19.80;57.40
44111;DHT22;29774;52.664;5.074;2023-06-04T08:03:08;19.80;56.40
44111;DHT22;29774;52.664;5.074;2023-06-04T08:05:34;20.00;55.20
44111;DHT22;29774;52.664;5.074;2023-06-04T08:08:00;19.80;54.80
44111;DHT22;29774;52.664;5.074;2023-06-04T08:10:26;19.70;54.20
44111;DHT22;29774;52.664;5.074;2023-06-04T08:12:51;19.80;55.10
44111;DHT22;29774;52.664;5.074;2023-06-04T08:15:17;20.00;54.70
44111;DHT22;29774;52.664;5.074;2023-06-04T08:17:42;20.10;54.90
44111;DHT22;29774;52.664;5.074;2023-06-04T08:20:08;20.00;55.50
44111;DHT22;29774;52.664;5.074;2023-06-04T08:22:37;20.20;55.00
44111;DHT22;29774;52.664;5.074;2023-06-04T08:25:03;20.10;55.80
44111;DHT22;29774;52.664;5.074;2023-06-04T08:27:31;20.10;56.00
44111;DHT22;29774;52.664;5.074;2023-06-04T08:29:57;20.10;55.40
44111;DHT22;29774;52.664;5.074;2023-06-04T08:32:23;20.20;55.10
44111;DHT22;29774;52.664;5.074;2023-06-04T08:34:49;20.10;54.90
44111;DHT22;29774;52.664;5.074;2023-06-04T08:37:17;20.20;54.40
44111;DHT22;29774;52.664;5.074;2023-06-04T08:39:42;20.10;54.50
44111;DHT22;29774;52.664;5.074;2023-06-04T08:42:15;20.10;55.80
44111;DHT22;29774;52.664;5.074;2023-06-04T08:44:43;20.10;54.70
44111;DHT22;29774;52.664;5.074;2023-06-04T08:47:11;20.30;54.60
44111;DHT22;29774;52.664;5.074;2023-06-04T08:49:40;20.40;54.50
44111;DHT22;29774;52.664;5.074;2023-06-04T08:52:06;20.40;54.50
44111;DHT22;29774;52.664;5.074;2023-06-04T08:54:33;20.60;54.30
44111;DHT22;29774;52.664;5.074;2023-06-04T08:57:00;20.60;54.10
44111;DHT22;29774;52.664;5.074;2023-06-04T08:59:27;20.70;53.80
44111;DHT22;29774;52.664;5.074;2023-06-04T09:01:53;20.70;53.80
44111;DHT22;29774;52.664;5.074;2023-06-04T09:04:20;20.70;53.50
44111;DHT22;29774;52.664;5.074;2023-06-04T09:06:46;20.50;54.30
44111;DHT22;29774;52.664;5.074;2023-06-04T09:09:14;20.70;52.90
44111;DHT22;29774;52.664;5.074;2023-06-04T09:11:51;20.90;52.10
44111;DHT22;29774;52.664;5.074;2023-06-04T09:14:17;21.00;52.70
44111;DHT22;29774;52.664;5.074;2023-06-04T09:16:48;20.80;52.60
44111;DHT22;29774;52.664;5.074;2023-06-04T09:19:16;21.00;53.30
44111;DHT22;29774;52.664;5.074;2023-06-04T09:21:54;21.10;53.20
44111;DHT22;29774;52.664;5.074;2023-06-04T09:24:21;21.10;52.30
44111;DHT22;29774;52.664;5.074;2023-06-04T09:26:48;21.20;53.10
44111;DHT22;29774;52.664;5.074;2023-06-04T09:29:14;21.10;52.60
44111;DHT22;29774;52.664;5.074;2023-06-04T09:31:41;21.30;52.90
44111;DHT22;29774;52.664;5.074;2023-06-04T09:34:07;21.40;51.90
44111;DHT22;29774;52.664;5.074;2023-06-04T09:36:33;21.40;52.20
44111;DHT22;29774;52.664;5.074;2023-06-04T09:39:13;21.80;51.50
44111;DHT22;29774;52.664;5.074;2023-06-04T09:41:39;21.90;51.00
44111;DHT22;29774;52.664;5.074;2023-06-04T09:44:05;21.70;51.30
44111;DHT22;29774;52.664;5.074;2023-06-04T09:46:31;21.50;51.40
44111;DHT22;29774;52.664;5.074;2023-06-04T09:49:02;21.70;50.90
44111;DHT22;29774;52.664;5.074;2023-06-04T09:51:29;22.10;50.30
44111;DHT22;29774;52.664;5.074;2023-06-04T09:54:03;22.20;50.30
44111;DHT22;29774;52.664;5.074;2023-06-04T09:56:29;22.20;49.20
44111;DHT22;29774;52.664;5.074;2023-06-04T09:59:00;22.20;49.70
44111;DHT22;29774;52.664;5.074;2023-06-04T10:01:28;22.30;49.00
44111;DHT22;29774;52.664;5.074;2023-06-04T10:03:54;22.30;48.70
44111;DHT22;29774;52.664;5.074;2023-06-04T10:06:21;22.10;50.30
44111;DHT22;29774;52.664;5.074;2023-06-04T10:08:52;22.20;50.80
44111;DHT22;29774;52.664;5.074;2023-06-04T10:11:22;22.40;48.40
44111;DHT22;29774;52.664;5.074;2023-06-04T10:13:53;22.70;48.70
44111;DHT22;29774;52.664;5.074;2023-06-04T10:16:23;22.80;46.80
44111;DHT22;29774;52.664;5.074;2023-06-04T10:18:52;23.00;46.50
44111;DHT22;29774;52.664;5.074;2023-06-04T10:21:20;22.90;46.80
44111;DHT22;29774;52.664;5.074;2023-06-04T10:23:46;22.90;47.80
44111;DHT22;29774;52.664;5.074;2023-06-04T10:26:15;22.70;47.70
44111;DHT22;29774;52.664;5.074;2023-06-04T10:28:42;22.60;47.30
44111;DHT22;29774;52.664;5.074;2023-06-04T10:31:09;22.50;47.60
44111;DHT22;29774;52.664;5.074;2023-06-04T10:33:36;22.70;48.20
44111;DHT22;29774;52.664;5.074;2023-06-04T10:36:22;23.10;47.10
44111;DHT22;29774;52.664;5.074;2023-06-04T10:38:50;22.70;47.30
44111;DHT22;29774;52.664;5.074;2023-06-04T10:41:17;22.30;48.30
44111;DHT22;29774;52.664;5.074;2023-06-04T10:43:45;22.30;49.30
44111;DHT22;29774;52.664;5.074;2023-06-04T10:46:12;22.70;48.60
44111;DHT22;29774;52.664;5.074;2023-06-04T10:48:49;22.70;48.10
44111;DHT22;29774;52.664;5.074;2023-06-04T10:51:16;22.70;48.00
44111;DHT22;29774;52.664;5.074;2023-06-04T10:53:42;23.20;47.00
44111;DHT22;29774;52.664;5.074;2023-06-04T10:56:08;23.10;46.80
44111;DHT22;29774;52.664;5.074;2023-06-04T10:58:34;23.10;47.10
44111;DHT22;29774;52.664;5.074;2023-06-04T11:01:00;22.90;47.10
44111;DHT22;29774;52.664;5.074;2023-06-04T11:03:38;22.70;47.90
44111;DHT22;29774;52.664;5.074;2023-06-04T11:06:15;22.40;48.80
44111;DHT22;29774;52.664;5.074;2023-06-04T11:08:42;22.30;49.30
44111;DHT22;29774;52.664;5.074;2023-06-04T11:11:12;22.50;49.10
44111;DHT22;29774;52.664;5.074;2023-06-04T11:13:39;22.60;48.10
44111;DHT22;29774;52.664;5.074;2023-06-04T11:16:17;22.90;47.60
44111;DHT22;29774;52.664;5.074;2023-06-04T11:18:53;22.90;47.80
44111;DHT22;29774;52.664;5.074;2023-06-04T11:21:19;22.80;47.20
44111;DHT22;29774;52.664;5.074;2023-06-04T11:23:45;23.20;46.70
44111;DHT22;29774;52.664;5.074;2023-06-04T11:26:10;23.20;45.30
44111;DHT22;29774;52.664;5.074;2023-06-04T11:28:36;23.10;46.40
44111;DHT22;29774;52.664;5.074;2023-06-04T11:31:02;23.10;47.10
44111;DHT22;29774;52.664;5.074;2023-06-04T11:33:29;23.00;46.80
44111;DHT22;29774;52.664;5.074;2023-06-04T11:35:55;23.20;46.60
44111;DHT22;29774;52.664;5.074;2023-06-04T11:38:20;23.00;47.40
44111;DHT22;29774;52.664;5.074;2023-06-04T11:40:57;22.90;46.80
44111;DHT22;29774;52.664;5.074;2023-06-04T11:43:23;22.90;46.80
44111;DHT22;29774;52.664;5.074;2023-06-04T11:45:50;22.80;47.50
44111;DHT22;29774;52.664;5.074;2023-06-04T11:48:16;22.60;48.40
44111;DHT22;29774;52.664;5.074;2023-06-04T11:50:42;22.40;48.70
44111;DHT22;29774;52.664;5.074;2023-06-04T11:53:09;22.80;47.50
44111;DHT22;29774;52.664;5.074;2023-06-04T11:55:35;22.90;47.80
44111;DHT22;29774;52.664;5.074;2023-06-04T11:58:01;22.60;48.20
44111;DHT22;29774;52.664;5.074;2023-06-04T12:00:27;22.70;47.70
44111;DHT22;29774;52.664;5.074;2023-06-04T12:02:55;22.70;48.10
44111;DHT22;29774;52.664;5.074;2023-06-04T12:05:28;22.60;48.30
44111;DHT22;29774;52.664;5.074;2023-06-04T12:08:04;22.60;47.00
44111;DHT22;29774;52.664;5.074;2023-06-04T12:10:39;22.60;45.50
44111;DHT22;29774;52.664;5.074;2023-06-04T12:13:06;22.70;45.90
44111;DHT22;29774;52.664;5.074;2023-06-04T12:15:31;23.20;45.90
44111;DHT22;29774;52.664;5.074;2023-06-04T12:17:57;23.20;45.50
44111;DHT22;29774;52.664;5.074;2023-06-04T12:20:37;23.20;46.20
44111;DHT22;29774;52.664;5.074;2023-06-04T12:23:03;23.00;46.40
44111;DHT22;29774;52.664;5.074;2023-06-04T12:25:30;22.90;45.60
44111;DHT22;29774;52.664;5.074;2023-06-04T12:27:56;22.80;47.40
44111;DHT22;29774;52.664;5.074;2023-06-04T12:30:22;22.70;47.50
44111;DHT22;29774;52.664;5.074;2023-06-04T12:32:48;22.80;47.20
44111;DHT22;29774;52.664;5.074;2023-06-04T12:35:14;22.90;47.60
44111;DHT22;29774;52.664;5.074;2023-06-04T12:37:41;22.60;47.20
44111;DHT22;29774;52.664;5.074;2023-06-04T12:40:07;22.50;48.00
44111;DHT22;29774;52.664;5.074;2023-06-04T12:42:34;22.50;47.10
44111;DHT22;29774;52.664;5.074;2023-06-04T12:45:00;22.50;48.50
44111;DHT22;29774;52.664;5.074;2023-06-04T12:47:25;22.60;47.70
44111;DHT22;29774;52.664;5.074;2023-06-04T12:49:51;22.70;47.80
44111;DHT22;29774;52.664;5.074;2023-06-04T12:52:17;22.70;46.00
44111;DHT22;29774;52.664;5.074;2023-06-04T12:54:43;22.50;47.40
44111;DHT22;29774;52.664;5.074;2023-06-04T12:57:09;22.40;47.70
44111;DHT22;29774;52.664;5.074;2023-06-04T12:59:35;22.60;46.80
44111;DHT22;29774;52.664;5.074;2023-06-04T13:02:01;22.70;46.40
44111;DHT22;29774;52.664;5.074;2023-06-04T13:04:26;22.50;47.60
44111;DHT22;29774;52.664;5.074;2023-06-04T13:06:52;22.60;47.80
44111;DHT22;29774;52.664;5.074;2023-06-04T13:09:20;22.90;46.60
44111;DHT22;29774;52.664;5.074;2023-06-04T13:11:48;22.70;47.20
44111;DHT22;29774;52.664;5.074;2023-06-04T13:14:14;22.50;46.90
44111;DHT22;29774;52.664;5.074;2023-06-04T13:16:40;22.50;46.60
44111;DHT22;29774;52.664;5.074;2023-06-04T13:19:07;22.50;48.30
44111;DHT22;29774;52.664;5.074;2023-06-04T13:21:33;22.50;47.90
44111;DHT22;29774;52.664;5.074;2023-06-04T13:23:59;22.40;49.30
44111;DHT22;29774;52.664;5.074;2023-06-04T13:26:25;22.50;47.60
44111;DHT22;29774;52.664;5.074;2023-06-04T13:28:51;22.50;48.60
44111;DHT22;29774;52.664;5.074;2023-06-04T13:31:16;22.40;49.10
44111;DHT22;29774;52.664;5.074;2023-06-04T13:33:42;22.40;49.00
44111;DHT22;29774;52.664;5.074;2023-06-04T13:36:08;22.30;49.00
44111;DHT22;29774;52.664;5.074;2023-06-04T13:38:34;22.20;49.70
44111;DHT22;29774;52.664;5.074;2023-06-04T13:41:00;22.30;48.70
44111;DHT22;29774;52.664;5.074;2023-06-04T13:43:25;22.40;48.90
44111;DHT22;29774;52.664;5.074;2023-06-04T13:45:51;22.30;47.50
44111;DHT22;29774;52.664;5.074;2023-06-04T13:48:17;22.20;49.40
44111;DHT22;29774;52.664;5.074;2023-06-04T13:50:42;21.90;49.70
44111;DHT22;29774;52.664;5.074;2023-06-04T13:53:09;21.70;51.00
44111;DHT22;29774;52.664;5.074;2023-06-04T13:55:34;21.70;51.10
44111;DHT22;29774;52.664;5.074;2023-06-04T13:58:00;21.70;50.80
44111;DHT22;29774;52.664;5.074;2023-06-04T14:00:26;21.80;50.70
44111;DHT22;29774;52.664;5.074;2023-06-04T14:02:52;21.70;51.50
44111;DHT22;29774;52.664;5.074;2023-06-04T14:05:20;21.70;51.10
44111;DHT22;29774;52.664;5.074;2023-06-04T14:07:46;21.70;50.70
44111;DHT22;29774;52.664;5.074;2023-06-04T14:10:12;21.60;51.90
44111;DHT22;29774;52.664;5.074;2023-06-04T14:12:38;21.40;51.60
44111;DHT22;29774;52.664;5.074;2023-06-04T14:15:07;21.20;52.40
44111;DHT22;29774;52.664;5.074;2023-06-04T14:17:34;21.30;52.60
44111;DHT22;29774;52.664;5.074;2023-06-04T14:20:01;21.30;53.20
44111;DHT22;29774;52.664;5.074;2023-06-04T14:22:26;21.20;53.30
44111;DHT22;29774;52.664;5.074;2023-06-04T14:24:52;21.20;53.70
44111;DHT22;29774;52.664;5.074;2023-06-04T14:27:18;21.00;53.50
44111;DHT22;29774;52.664;5.074;2023-06-04T14:29:43;20.80;54.40
44111;DHT22;29774;52.664;5.074;2023-06-04T14:32:09;20.70;55.30
44111;DHT22;29774;52.664;5.074;2023-06-04T14:34:35;20.30;55.90
44111;DHT22;29774;52.664;5.074;2023-06-04T14:37:00;20.10;56.70
44111;DHT22;29774;52.664;5.074;2023-06-04T14:39:27;19.80;56.90
44111;DHT22;29774;52.664;5.074;2023-06-04T14:41:52;19.70;57.30
44111;DHT22;29774;52.664;5.074;2023-06-04T14:44:19;19.30;57.70
44111;DHT22;29774;52.664;5.074;2023-06-04T14:46:44;19.20;59.10
44111;DHT22;29774;52.664;5.074;2023-06-04T14:49:10;19.20;59.30
44111;DHT22;29774;52.664;5.074;2023-06-04T14:51:36;19.20;59.10
44111;DHT22;29774;52.664;5.074;2023-06-04T14:54:02;18.80;59.20
44111;DHT22;29774;52.664;5.074;2023-06-04T14:56:28;18.80;60.10
44111;DHT22;29774;52.664;5.074;2023-06-04T14:58:56;18.90;60.20
44111;DHT22;29774;52.664;5.074;2023-06-04T15:01:21;18.70;60.20
44111;DHT22;29774;52.664;5.074;2023-06-04T15:03:50;18.70;61.40
44111;DHT22;29774;52.664;5.074;2023-06-04T15:06:16;18.70;60.80
44111;DHT22;29774;52.664;5.074;2023-06-04T15:08:41;18.80;60.70
44111;DHT22;29774;52.664;5.074;2023-06-04T15:11:07;18.70;60.40
44111;DHT22;29774;52.664;5.074;2023-06-04T15:13:33;18.70;60.30
44111;DHT22;29774;52.664;5.074;2023-06-04T15:15:58;18.60;62.10
44111;DHT22;29774;52.664;5.074;2023-06-04T15:18:24;18.50;61.90
44111;DHT22;29774;52.664;5.074;2023-06-04T15:20:50;18.60;62.00
44111;DHT22;29774;52.664;5.074;2023-06-04T15:23:15;18.50;61.60
44111;DHT22;29774;52.664;5.074;2023-06-04T15:25:43;18.50;61.40
44111;DHT22;29774;52.664;5.074;2023-06-04T15:28:09;18.40;62.20
44111;DHT22;29774;52.664;5.074;2023-06-04T15:30:34;18.30;62.50
44111;DHT22;29774;52.664;5.074;2023-06-04T15:33:00;18.30;61.60
44111;DHT22;29774;52.664;5.074;2023-06-04T15:35:27;18.00;62.20